sensor_id;sensor_type;location;lat;lon;timestamp;P1;durP1;ratioP1;P2;durP2;ratioP2
15716;SDS011;7960;50.908;4.204;2023-03-26T00:01:12;13.17;;;3.00;;
15716;SDS011;7960;50.908;4.204;2023-03-26T00:03:40;13.57;;;2.90;;
15716;SDS011;7960;50.908;4.204;2023-03-26T00:06:09;15.23;;;3.43;;
15716;SDS011;7960;50.908;4.204;2023-03-26T00:08:38;13.93;;;2.83;;
15716;SDS011;7960;50.908;4.204;2023-03-26T00:11:06;12.93;;;2.90;;
15716;SDS011;7960;50.908;4.204;2023-03-26T00:13:36;13.13;;;3.20;;
15716;SDS011;7960;50.908;4.204;2023-03-26T00:16:05;14.20;;;3.50;;
15716;SDS011;7960;50.908;4.204;2023-03-26T00:18:32;14.73;;;3.13;;
15716;SDS011;7960;50.908;4.204;2023-03-26T00:21:03;11.50;;;2.80;;
15716;SDS011;7960;50.908;4.204;2023-03-26T00:23:32;14.33;;;3.00;;
15716;SDS011;7960;50.908;4.204;2023-03-26T00:26:00;13.90;;;3.50;;
15716;SDS011;7960;50.908;4.204;2023-03-26T00:28:28;10.37;;;3.00;;
15716;SDS011;7960;50.908;4.204;2023-03-26T00:30:57;12.97;;;3.10;;
15716;SDS011;7960;50.908;4.204;2023-03-26T00:33:26;9.67;;;3.07;;
15716;SDS011;7960;50.908;4.204;2023-03-26T00:35:56;16.27;;;3.87;;
15716;SDS011;7960;50.908;4.204;2023-03-26T00:38:26;14.20;;;3.53;;
15716;SDS011;7960;50.908;4.204;2023-03-26T00:40:54;19.77;;;4.17;;
15716;SDS011;7960;50.908;4.204;2023-03-26T00:43:30;13.73;;;3.30;;
15716;SDS011;7960;50.908;4.204;2023-03-26T00:45:59;19.27;;;3.77;;
15716;SDS011;7960;50.908;4.204;2023-03-26T00:48:27;14.10;;;3.53;;
15716;SDS011;7960;50.908;4.204;2023-03-26T00:50:54;22.27;;;4.27;;
15716;SDS011;7960;50.908;4.204;2023-03-26T00:53:22;18.27;;;3.90;;
15716;SDS011;7960;50.908;4.204;2023-03-26T00:55:49;16.03;;;3.90;;
15716;SDS011;7960;50.908;4.204;2023-03-26T00:58:16;15.13;;;4.50;;
15716;SDS011;7960;50.908;4.204;2023-03-26T01:00:47;13.83;;;4.83;;
15716;SDS011;7960;50.908;4.204;2023-03-26T01:03:17;21.80;;;3.87;;
15716;SDS011;7960;50.908;4.204;2023-03-26T01:05:46;18.10;;;4.43;;
15716;SDS011;7960;50.908;4.204;2023-03-26T01:08:27;17.73;;;4.13;;
15716;SDS011;7960;50.908;4.204;2023-03-26T01:10:57;12.53;;;4.17;;
15716;SDS011;7960;50.908;4.204;2023-03-26T01:13:32;16.10;;;4.03;;
15716;SDS011;7960;50.908;4.204;2023-03-26T01:16:01;16.33;;;3.73;;
15716;SDS011;7960;50.908;4.204;2023-03-26T01:18:31;13.87;;;4.27;;
15716;SDS011;7960;50.908;4.204;2023-03-26T01:21:05;17.60;;;4.80;;
15716;SDS011;7960;50.908;4.204;2023-03-26T01:23:36;15.93;;;3.53;;
15716;SDS011;7960;50.908;4.204;2023-03-26T01:29:17;13.63;;;3.63;;
15716;SDS011;7960;50.908;4.204;2023-03-26T01:31:48;14.90;;;4.80;;
15716;SDS011;7960;50.908;4.204;2023-03-26T01:34:23;16.33;;;4.17;;
15716;SDS011;7960;50.908;4.204;2023-03-26T01:37:02;12.70;;;4.00;;
15716;SDS011;7960;50.908;4.204;2023-03-26T01:39:37;18.90;;;4.07;;
15716;SDS011;7960;50.908;4.204;2023-03-26T01:42:14;14.17;;;3.00;;
15716;SDS011;7960;50.908;4.204;2023-03-26T01:44:49;8.87;;;3.17;;
15716;SDS011;7960;50.908;4.204;2023-03-26T01:47:20;8.87;;;2.93;;
15716;SDS011;7960;50.908;4.204;2023-03-26T01:49:48;10.97;;;3.83;;
15716;SDS011;7960;50.908;4.204;2023-03-26T01:52:16;16.90;;;4.13;;
15716;SDS011;7960;50.908;4.204;2023-03-26T01:54:45;11.80;;;3.30;;
15716;SDS011;7960;50.908;4.204;2023-03-26T01:57:14;14.73;;;3.90;;
15716;SDS011;7960;50.908;4.204;2023-03-26T01:59:51;9.13;;;3.57;;
15716;SDS011;7960;50.908;4.204;2023-03-26T02:02:27;12.37;;;3.77;;
15716;SDS011;7960;50.908;4.204;2023-03-26T02:05:04;10.47;;;3.60;;
15716;SDS011;7960;50.908;4.204;2023-03-26T02:07:38;15.30;;;3.60;;
15716;SDS011;7960;50.908;4.204;2023-03-26T02:10:12;11.70;;;3.80;;
15716;SDS011;7960;50.908;4.204;2023-03-26T02:12:42;13.17;;;3.33;;
15716;SDS011;7960;50.908;4.204;2023-03-26T02:15:11;8.67;;;3.27;;
15716;SDS011;7960;50.908;4.204;2023-03-26T02:17:38;11.20;;;3.53;;
15716;SDS011;7960;50.908;4.204;2023-03-26T02:20:06;15.73;;;3.57;;
15716;SDS011;7960;50.908;4.204;2023-03-26T02:22:34;7.93;;;3.80;;
15716;SDS011;7960;50.908;4.204;2023-03-26T02:25:06;14.27;;;3.37;;
15716;SDS011;7960;50.908;4.204;2023-03-26T02:27:33;9.83;;;3.83;;
15716;SDS011;7960;50.908;4.204;2023-03-26T02:30:00;15.47;;;4.10;;
15716;SDS011;7960;50.908;4.204;2023-03-26T02:32:28;13.57;;;3.53;;
15716;SDS011;7960;50.908;4.204;2023-03-26T02:34:55;11.30;;;3.60;;
15716;SDS011;7960;50.908;4.204;2023-03-26T02:37:22;19.73;;;4.07;;
15716;SDS011;7960;50.908;4.204;2023-03-26T02:39:49;11.30;;;3.57;;
15716;SDS011;7960;50.908;4.204;2023-03-26T02:42:16;15.07;;;4.07;;
15716;SDS011;7960;50.908;4.204;2023-03-26T02:44:43;11.03;;;3.33;;
15716;SDS011;7960;50.908;4.204;2023-03-26T02:47:10;10.50;;;3.57;;
15716;SDS011;7960;50.908;4.204;2023-03-26T02:49:38;15.87;;;3.60;;
15716;SDS011;7960;50.908;4.204;2023-03-26T02:52:05;11.80;;;3.63;;
15716;SDS011;7960;50.908;4.204;2023-03-26T02:54:32;16.27;;;3.67;;
15716;SDS011;7960;50.908;4.204;2023-03-26T02:56:59;11.67;;;3.47;;
15716;SDS011;7960;50.908;4.204;2023-03-26T02:59:26;12.20;;;4.00;;
15716;SDS011;7960;50.908;4.204;2023-03-26T03:01:53;15.30;;;3.93;;
15716;SDS011;7960;50.908;4.204;2023-03-26T03:04:20;12.83;;;3.80;;
15716;SDS011;7960;50.908;4.204;2023-03-26T03:06:48;10.83;;;3.50;;
15716;SDS011;7960;50.908;4.204;2023-03-26T03:09:17;15.00;;;4.03;;
15716;SDS011;7960;50.908;4.204;2023-03-26T03:11:44;19.27;;;4.33;;
15716;SDS011;7960;50.908;4.204;2023-03-26T03:14:11;11.43;;;3.43;;
15716;SDS011;7960;50.908;4.204;2023-03-26T03:16:37;13.33;;;3.97;;
15716;SDS011;7960;50.908;4.204;2023-03-26T03:19:05;12.40;;;3.63;;
15716;SDS011;7960;50.908;4.204;2023-03-26T03:21:32;12.87;;;4.93;;
15716;SDS011;7960;50.908;4.204;2023-03-26T03:24:00;12.20;;;4.43;;
15716;SDS011;7960;50.908;4.204;2023-03-26T03:26:27;12.87;;;3.97;;
15716;SDS011;7960;50.908;4.204;2023-03-26T03:28:55;16.33;;;4.27;;
15716;SDS011;7960;50.908;4.204;2023-03-26T03:31:23;17.73;;;3.73;;
15716;SDS011;7960;50.908;4.204;2023-03-26T03:33:50;11.47;;;3.60;;
15716;SDS011;7960;50.908;4.204;2023-03-26T03:36:18;15.37;;;3.87;;
15716;SDS011;7960;50.908;4.204;2023-03-26T03:38:47;12.83;;;3.30;;
15716;SDS011;7960;50.908;4.204;2023-03-26T03:41:16;11.13;;;3.93;;
15716;SDS011;7960;50.908;4.204;2023-03-26T03:43:43;12.13;;;3.80;;
15716;SDS011;7960;50.908;4.204;2023-03-26T03:46:10;18.90;;;4.10;;
15716;SDS011;7960;50.908;4.204;2023-03-26T03:48:37;12.63;;;3.63;;
15716;SDS011;7960;50.908;4.204;2023-03-26T03:51:04;14.10;;;3.87;;
15716;SDS011;7960;50.908;4.204;2023-03-26T03:53:31;12.67;;;3.43;;
15716;SDS011;7960;50.908;4.204;2023-03-26T03:56:01;11.27;;;3.63;;
15716;SDS011;7960;50.908;4.204;2023-03-26T03:58:30;14.10;;;4.03;;
15716;SDS011;7960;50.908;4.204;2023-03-26T04:00:58;14.17;;;3.60;;
15716;SDS011;7960;50.908;4.204;2023-03-26T04:03:27;12.33;;;4.10;;
15716;SDS011;7960;50.908;4.204;2023-03-26T04:05:54;15.70;;;3.80;;
15716;SDS011;7960;50.908;4.204;2023-03-26T04:08:21;14.07;;;4.07;;
15716;SDS011;7960;50.908;4.204;2023-03-26T04:10:49;12.30;;;3.80;;
15716;SDS011;7960;50.908;4.204;2023-03-26T04:13:16;8.90;;;3.57;;
15716;SDS011;7960;50.908;4.204;2023-03-26T04:15:44;15.90;;;4.57;;
15716;SDS011;7960;50.908;4.204;2023-03-26T04:18:11;16.23;;;3.70;;
15716;SDS011;7960;50.908;4.204;2023-03-26T04:20:39;14.93;;;3.83;;
15716;SDS011;7960;50.908;4.204;2023-03-26T04:23:10;12.07;;;4.27;;
15716;SDS011;7960;50.908;4.204;2023-03-26T04:25:38;12.83;;;3.57;;
15716;SDS011;7960;50.908;4.204;2023-03-26T04:28:06;14.03;;;4.13;;
15716;SDS011;7960;50.908;4.204;2023-03-26T04:30:36;12.60;;;3.00;;
15716;SDS011;7960;50.908;4.204;2023-03-26T04:33:08;13.03;;;3.57;;
15716;SDS011;7960;50.908;4.204;2023-03-26T04:35:39;9.10;;;3.57;;
15716;SDS011;7960;50.908;4.204;2023-03-26T04:38:08;12.83;;;3.73;;
15716;SDS011;7960;50.908;4.204;2023-03-26T04:40:41;12.63;;;3.40;;
15716;SDS011;7960;50.908;4.204;2023-03-26T04:43:11;21.33;;;3.73;;
15716;SDS011;7960;50.908;4.204;2023-03-26T04:45:40;14.90;;;3.80;;
15716;SDS011;7960;50.908;4.204;2023-03-26T04:48:09;13.00;;;3.30;;
15716;SDS011;7960;50.908;4.204;2023-03-26T04:50:38;14.93;;;3.73;;
15716;SDS011;7960;50.908;4.204;2023-03-26T04:53:08;11.00;;;3.23;;
15716;SDS011;7960;50.908;4.204;2023-03-26T04:55:38;12.07;;;3.67;;
15716;SDS011;7960;50.908;4.204;2023-03-26T04:58:10;9.37;;;3.33;;
15716;SDS011;7960;50.908;4.204;2023-03-26T05:00:38;8.07;;;3.13;;
15716;SDS011;7960;50.908;4.204;2023-03-26T05:03:09;10.23;;;3.23;;
15716;SDS011;7960;50.908;4.204;2023-03-26T05:05:36;19.20;;;2.97;;
15716;SDS011;7960;50.908;4.204;2023-03-26T05:08:04;15.03;;;3.37;;
15716;SDS011;7960;50.908;4.204;2023-03-26T05:10:31;9.33;;;3.10;;
15716;SDS011;7960;50.908;4.204;2023-03-26T05:12:58;12.20;;;3.17;;
15716;SDS011;7960;50.908;4.204;2023-03-26T05:15:24;14.97;;;3.17;;
15716;SDS011;7960;50.908;4.204;2023-03-26T05:17:51;9.03;;;2.90;;
15716;SDS011;7960;50.908;4.204;2023-03-26T05:20:21;7.77;;;2.53;;
15716;SDS011;7960;50.908;4.204;2023-03-26T05:22:50;12.40;;;2.50;;
15716;SDS011;7960;50.908;4.204;2023-03-26T05:25:17;7.53;;;2.23;;
15716;SDS011;7960;50.908;4.204;2023-03-26T05:27:45;11.27;;;2.40;;
15716;SDS011;7960;50.908;4.204;2023-03-26T05:30:13;7.83;;;2.37;;
15716;SDS011;7960;50.908;4.204;2023-03-26T05:32:41;5.03;;;2.57;;
15716;SDS011;7960;50.908;4.204;2023-03-26T05:35:08;8.20;;;2.57;;
15716;SDS011;7960;50.908;4.204;2023-03-26T05:37:38;9.97;;;2.70;;
15716;SDS011;7960;50.908;4.204;2023-03-26T05:40:05;6.30;;;2.30;;
15716;SDS011;7960;50.908;4.204;2023-03-26T05:42:36;20.63;;;5.73;;
15716;SDS011;7960;50.908;4.204;2023-03-26T05:45:04;11.53;;;5.37;;
15716;SDS011;7960;50.908;4.204;2023-03-26T05:47:32;10.70;;;4.30;;
15716;SDS011;7960;50.908;4.204;2023-03-26T05:49:59;8.63;;;2.80;;
15716;SDS011;7960;50.908;4.204;2023-03-26T05:52:26;10.20;;;3.57;;
15716;SDS011;7960;50.908;4.204;2023-03-26T05:54:54;8.60;;;3.33;;
15716;SDS011;7960;50.908;4.204;2023-03-26T05:57:21;5.87;;;2.93;;
15716;SDS011;7960;50.908;4.204;2023-03-26T05:59:52;9.50;;;2.70;;
15716;SDS011;7960;50.908;4.204;2023-03-26T06:02:20;9.80;;;3.20;;
15716;SDS011;7960;50.908;4.204;2023-03-26T06:04:48;7.20;;;3.03;;
15716;SDS011;7960;50.908;4.204;2023-03-26T06:07:15;6.47;;;2.40;;
15716;SDS011;7960;50.908;4.204;2023-03-26T06:09:42;8.13;;;2.97;;
15716;SDS011;7960;50.908;4.204;2023-03-26T06:12:10;9.23;;;2.40;;
15716;SDS011;7960;50.908;4.204;2023-03-26T06:14:38;8.90;;;2.90;;
15716;SDS011;7960;50.908;4.204;2023-03-26T06:17:06;9.00;;;2.80;;
15716;SDS011;7960;50.908;4.204;2023-03-26T06:19:34;7.83;;;2.70;;
15716;SDS011;7960;50.908;4.204;2023-03-26T06:22:02;10.23;;;2.37;;
15716;SDS011;7960;50.908;4.204;2023-03-26T06:24:29;6.30;;;2.70;;
15716;SDS011;7960;50.908;4.204;2023-03-26T06:26:56;10.20;;;2.40;;
15716;SDS011;7960;50.908;4.204;2023-03-26T06:29:25;6.43;;;2.50;;
15716;SDS011;7960;50.908;4.204;2023-03-26T06:31:51;7.60;;;3.03;;
15716;SDS011;7960;50.908;4.204;2023-03-26T06:34:19;7.07;;;2.80;;
15716;SDS011;7960;50.908;4.204;2023-03-26T06:36:46;5.93;;;2.00;;
15716;SDS011;7960;50.908;4.204;2023-03-26T06:39:16;7.83;;;2.40;;
15716;SDS011;7960;50.908;4.204;2023-03-26T06:41:43;3.67;;;1.80;;
15716;SDS011;7960;50.908;4.204;2023-03-26T06:44:10;4.87;;;2.00;;
15716;SDS011;7960;50.908;4.204;2023-03-26T06:46:38;7.33;;;2.20;;
15716;SDS011;7960;50.908;4.204;2023-03-26T06:49:05;8.73;;;2.60;;
15716;SDS011;7960;50.908;4.204;2023-03-26T06:51:32;2.73;;;2.00;;
15716;SDS011;7960;50.908;4.204;2023-03-26T06:53:58;6.43;;;2.30;;
15716;SDS011;7960;50.908;4.204;2023-03-26T06:56:25;5.17;;;1.80;;
15716;SDS011;7960;50.908;4.204;2023-03-26T06:58:52;5.07;;;2.60;;
15716;SDS011;7960;50.908;4.204;2023-03-26T07:01:19;7.40;;;2.10;;
15716;SDS011;7960;50.908;4.204;2023-03-26T07:03:47;6.23;;;2.20;;
15716;SDS011;7960;50.908;4.204;2023-03-26T07:06:14;4.73;;;1.80;;
15716;SDS011;7960;50.908;4.204;2023-03-26T07:08:41;2.73;;;1.57;;
15716;SDS011;7960;50.908;4.204;2023-03-26T07:11:08;3.53;;;2.00;;
15716;SDS011;7960;50.908;4.204;2023-03-26T07:13:34;7.83;;;2.00;;
15716;SDS011;7960;50.908;4.204;2023-03-26T07:16:01;6.37;;;1.83;;
15716;SDS011;7960;50.908;4.204;2023-03-26T07:18:28;4.97;;;1.70;;
15716;SDS011;7960;50.908;4.204;2023-03-26T07:20:57;4.23;;;1.50;;
15716;SDS011;7960;50.908;4.204;2023-03-26T07:23:24;5.30;;;1.87;;
15716;SDS011;7960;50.908;4.204;2023-03-26T07:25:52;5.13;;;1.90;;
15716;SDS011;7960;50.908;4.204;2023-03-26T07:28:22;4.97;;;1.57;;
15716;SDS011;7960;50.908;4.204;2023-03-26T07:30:58;3.50;;;1.70;;
15716;SDS011;7960;50.908;4.204;2023-03-26T07:33:33;3.13;;;1.90;;
15716;SDS011;7960;50.908;4.204;2023-03-26T07:36:09;3.53;;;1.57;;
15716;SDS011;7960;50.908;4.204;2023-03-26T07:38:47;5.33;;;1.80;;
15716;SDS011;7960;50.908;4.204;2023-03-26T07:41:26;5.60;;;1.60;;
15716;SDS011;7960;50.908;4.204;2023-03-26T07:44:04;3.67;;;1.60;;
15716;SDS011;7960;50.908;4.204;2023-03-26T07:46:40;4.43;;;1.90;;
15716;SDS011;7960;50.908;4.204;2023-03-26T07:49:07;3.50;;;1.80;;
15716;SDS011;7960;50.908;4.204;2023-03-26T07:51:38;5.13;;;1.80;;
15716;SDS011;7960;50.908;4.204;2023-03-26T07:54:05;4.17;;;1.57;;
15716;SDS011;7960;50.908;4.204;2023-03-26T07:56:34;4.87;;;1.57;;
15716;SDS011;7960;50.908;4.204;2023-03-26T07:59:09;3.70;;;1.87;;
15716;SDS011;7960;50.908;4.204;2023-03-26T08:01:48;6.60;;;2.10;;
15716;SDS011;7960;50.908;4.204;2023-03-26T08:04:26;4.43;;;1.70;;
15716;SDS011;7960;50.908;4.204;2023-03-26T08:07:13;4.97;;;1.60;;
15716;SDS011;7960;50.908;4.204;2023-03-26T08:09:47;6.17;;;1.80;;
15716;SDS011;7960;50.908;4.204;2023-03-26T08:12:26;3.63;;;1.60;;
15716;SDS011;7960;50.908;4.204;2023-03-26T08:15:02;6.80;;;1.80;;
15716;SDS011;7960;50.908;4.204;2023-03-26T08:17:38;4.23;;;1.53;;
15716;SDS011;7960;50.908;4.204;2023-03-26T08:20:11;5.53;;;1.70;;
15716;SDS011;7960;50.908;4.204;2023-03-26T08:22:52;6.83;;;1.73;;
15716;SDS011;7960;50.908;4.204;2023-03-26T08:25:26;4.13;;;1.93;;
15716;SDS011;7960;50.908;4.204;2023-03-26T08:28:03;4.17;;;1.50;;
15716;SDS011;7960;50.908;4.204;2023-03-26T08:30:37;2.40;;;1.40;;
15716;SDS011;7960;50.908;4.204;2023-03-26T08:33:09;2.77;;;1.80;;
15716;SDS011;7960;50.908;4.204;2023-03-26T08:35:41;6.47;;;1.90;;
15716;SDS011;7960;50.908;4.204;2023-03-26T08:38:10;5.97;;;1.77;;
15716;SDS011;7960;50.908;4.204;2023-03-26T08:47:03;4.07;;;1.90;;
15716;SDS011;7960;50.908;4.204;2023-03-26T08:50:05;3.30;;;1.57;;
15716;SDS011;7960;50.908;4.204;2023-03-26T08:55:51;4.47;;;2.03;;
15716;SDS011;7960;50.908;4.204;2023-03-26T08:58:36;6.23;;;2.00;;
15716;SDS011;7960;50.908;4.204;2023-03-26T09:04:28;2.87;;;1.70;;
15716;SDS011;7960;50.908;4.204;2023-03-26T09:13:34;4.33;;;1.83;;
15716;SDS011;7960;50.908;4.204;2023-03-26T09:19:47;5.90;;;2.17;;
15716;SDS011;7960;50.908;4.204;2023-03-26T09:22:52;6.07;;;2.80;;
15716;SDS011;7960;50.908;4.204;2023-03-26T09:25:52;5.70;;;2.07;;
15716;SDS011;7960;50.908;4.204;2023-03-26T09:28:35;6.67;;;2.37;;
15716;SDS011;7960;50.908;4.204;2023-03-26T09:31:24;5.27;;;2.20;;
15716;SDS011;7960;50.908;4.204;2023-03-26T09:34:24;6.57;;;2.63;;
15716;SDS011;7960;50.908;4.204;2023-03-26T09:36:54;5.50;;;2.90;;
15716;SDS011;7960;50.908;4.204;2023-03-26T09:39:28;3.53;;;1.90;;
15716;SDS011;7960;50.908;4.204;2023-03-26T09:42:07;3.03;;;2.30;;
15716;SDS011;7960;50.908;4.204;2023-03-26T09:44:46;4.83;;;3.33;;
15716;SDS011;7960;50.908;4.204;2023-03-26T09:50:41;3.80;;;2.30;;
15716;SDS011;7960;50.908;4.204;2023-03-26T09:53:21;6.13;;;3.20;;
15716;SDS011;7960;50.908;4.204;2023-03-26T09:56:01;5.53;;;3.23;;
15716;SDS011;7960;50.908;4.204;2023-03-26T09:58:47;9.33;;;3.07;;
15716;SDS011;7960;50.908;4.204;2023-03-26T10:01:31;3.27;;;1.80;;
15716;SDS011;7960;50.908;4.204;2023-03-26T10:07:24;3.13;;;2.53;;
15716;SDS011;7960;50.908;4.204;2023-03-26T10:10:05;4.60;;;2.50;;
15716;SDS011;7960;50.908;4.204;2023-03-26T10:12:40;5.00;;;2.17;;
15716;SDS011;7960;50.908;4.204;2023-03-26T10:15:12;3.50;;;2.40;;
15716;SDS011;7960;50.908;4.204;2023-03-26T10:17:53;3.40;;;1.90;;
15716;SDS011;7960;50.908;4.204;2023-03-26T10:20:32;4.60;;;2.33;;
15716;SDS011;7960;50.908;4.204;2023-03-26T10:23:19;3.30;;;2.30;;
15716;SDS011;7960;50.908;4.204;2023-03-26T10:25:59;3.83;;;1.87;;
15716;SDS011;7960;50.908;4.204;2023-03-26T10:28:47;3.73;;;1.80;;
15716;SDS011;7960;50.908;4.204;2023-03-26T10:34:13;3.83;;;2.30;;
15716;SDS011;7960;50.908;4.204;2023-03-26T10:36:53;12.27;;;2.20;;
15716;SDS011;7960;50.908;4.204;2023-03-26T10:39:33;2.30;;;2.10;;
15716;SDS011;7960;50.908;4.204;2023-03-26T10:42:23;7.80;;;3.33;;
15716;SDS011;7960;50.908;4.204;2023-03-26T10:45:16;7.40;;;3.93;;
15716;SDS011;7960;50.908;4.204;2023-03-26T10:48:06;6.20;;;2.90;;
15716;SDS011;7960;50.908;4.204;2023-03-26T10:50:53;4.93;;;2.33;;
15716;SDS011;7960;50.908;4.204;2023-03-26T10:53:33;3.17;;;2.23;;
15716;SDS011;7960;50.908;4.204;2023-03-26T10:56:08;3.90;;;2.97;;
15716;SDS011;7960;50.908;4.204;2023-03-26T10:58:42;5.60;;;2.63;;
15716;SDS011;7960;50.908;4.204;2023-03-26T11:01:11;3.57;;;1.70;;
15716;SDS011;7960;50.908;4.204;2023-03-26T11:03:46;5.03;;;2.47;;
15716;SDS011;7960;50.908;4.204;2023-03-26T11:06:21;3.93;;;2.00;;
15716;SDS011;7960;50.908;4.204;2023-03-26T11:08:58;3.33;;;1.80;;
15716;SDS011;7960;50.908;4.204;2023-03-26T11:11:34;7.00;;;4.27;;
15716;SDS011;7960;50.908;4.204;2023-03-26T11:14:07;2.97;;;1.83;;
15716;SDS011;7960;50.908;4.204;2023-03-26T11:16:42;4.90;;;1.80;;
15716;SDS011;7960;50.908;4.204;2023-03-26T11:19:19;3.27;;;1.90;;
15716;SDS011;7960;50.908;4.204;2023-03-26T11:21:55;3.33;;;1.93;;
15716;SDS011;7960;50.908;4.204;2023-03-26T11:24:34;3.50;;;2.63;;
15716;SDS011;7960;50.908;4.204;2023-03-26T11:27:21;4.80;;;3.30;;
15716;SDS011;7960;50.908;4.204;2023-03-26T11:30:01;5.27;;;3.37;;
15716;SDS011;7960;50.908;4.204;2023-03-26T11:32:36;5.60;;;3.50;;
15716;SDS011;7960;50.908;4.204;2023-03-26T11:35:06;4.77;;;3.03;;
15716;SDS011;7960;50.908;4.204;2023-03-26T11:37:42;5.30;;;3.27;;
15716;SDS011;7960;50.908;4.204;2023-03-26T11:40:13;7.33;;;3.90;;
15716;SDS011;7960;50.908;4.204;2023-03-26T11:42:45;10.57;;;7.07;;
15716;SDS011;7960;50.908;4.204;2023-03-26T11:45:13;6.60;;;5.40;;
15716;SDS011;7960;50.908;4.204;2023-03-26T11:47:45;7.83;;;4.27;;
15716;SDS011;7960;50.908;4.204;2023-03-26T11:50:17;7.87;;;3.97;;
15716;SDS011;7960;50.908;4.204;2023-03-26T11:52:50;5.50;;;3.50;;
15716;SDS011;7960;50.908;4.204;2023-03-26T11:55:17;7.23;;;4.40;;
15716;SDS011;7960;50.908;4.204;2023-03-26T11:57:46;4.67;;;2.87;;
15716;SDS011;7960;50.908;4.204;2023-03-26T12:00:18;5.67;;;3.30;;
15716;SDS011;7960;50.908;4.204;2023-03-26T12:02:54;6.93;;;3.97;;
15716;SDS011;7960;50.908;4.204;2023-03-26T12:05:22;3.63;;;3.03;;
15716;SDS011;7960;50.908;4.204;2023-03-26T12:07:54;4.87;;;2.87;;
15716;SDS011;7960;50.908;4.204;2023-03-26T12:10:24;5.93;;;3.20;;
15716;SDS011;7960;50.908;4.204;2023-03-26T12:12:55;8.10;;;3.63;;
15716;SDS011;7960;50.908;4.204;2023-03-26T12:15:24;5.77;;;3.20;;
15716;SDS011;7960;50.908;4.204;2023-03-26T12:17:53;4.83;;;2.90;;
15716;SDS011;7960;50.908;4.204;2023-03-26T12:20:32;6.77;;;3.13;;
15716;SDS011;7960;50.908;4.204;2023-03-26T12:23:04;4.93;;;2.67;;
15716;SDS011;7960;50.908;4.204;2023-03-26T12:25:32;3.10;;;2.40;;
15716;SDS011;7960;50.908;4.204;2023-03-26T12:28:01;3.83;;;2.30;;
15716;SDS011;7960;50.908;4.204;2023-03-26T12:30:30;3.70;;;2.50;;
15716;SDS011;7960;50.908;4.204;2023-03-26T12:32:59;3.70;;;2.30;;
15716;SDS011;7960;50.908;4.204;2023-03-26T12:35:30;4.07;;;2.43;;
15716;SDS011;7960;50.908;4.204;2023-03-26T12:41:02;5.00;;;2.87;;
15716;SDS011;7960;50.908;4.204;2023-03-26T12:43:35;4.30;;;2.60;;
15716;SDS011;7960;50.908;4.204;2023-03-26T12:46:09;4.43;;;2.43;;
15716;SDS011;7960;50.908;4.204;2023-03-26T12:48:47;4.33;;;2.60;;
15716;SDS011;7960;50.908;4.204;2023-03-26T12:51:16;3.70;;;2.43;;
15716;SDS011;7960;50.908;4.204;2023-03-26T12:53:55;3.13;;;2.37;;
15716;SDS011;7960;50.908;4.204;2023-03-26T12:56:30;3.53;;;2.27;;
15716;SDS011;7960;50.908;4.204;2023-03-26T12:59:16;2.00;;;1.80;;
15716;SDS011;7960;50.908;4.204;2023-03-26T13:01:53;2.70;;;1.90;;
15716;SDS011;7960;50.908;4.204;2023-03-26T13:04:47;1.97;;;1.67;;
15716;SDS011;7960;50.908;4.204;2023-03-26T13:07:27;3.17;;;1.80;;
15716;SDS011;7960;50.908;4.204;2023-03-26T13:10:21;2.43;;;2.20;;
15716;SDS011;7960;50.908;4.204;2023-03-26T13:13:09;2.37;;;1.90;;
15716;SDS011;7960;50.908;4.204;2023-03-26T13:16:02;2.73;;;2.17;;
15716;SDS011;7960;50.908;4.204;2023-03-26T13:18:41;3.27;;;2.33;;
15716;SDS011;7960;50.908;4.204;2023-03-26T13:21:14;6.00;;;3.33;;
15716;SDS011;7960;50.908;4.204;2023-03-26T13:23:51;3.67;;;3.00;;
15716;SDS011;7960;50.908;4.204;2023-03-26T13:26:28;4.47;;;3.20;;
15716;SDS011;7960;50.908;4.204;2023-03-26T13:29:04;4.47;;;3.47;;
15716;SDS011;7960;50.908;4.204;2023-03-26T13:31:38;5.50;;;3.20;;
15716;SDS011;7960;50.908;4.204;2023-03-26T13:34:12;10.27;;;5.97;;
15716;SDS011;7960;50.908;4.204;2023-03-26T13:36:44;5.37;;;4.50;;
15716;SDS011;7960;50.908;4.204;2023-03-26T13:39:22;4.50;;;4.03;;
15716;SDS011;7960;50.908;4.204;2023-03-26T13:41:58;4.00;;;3.60;;
15716;SDS011;7960;50.908;4.204;2023-03-26T13:44:40;5.00;;;3.47;;
15716;SDS011;7960;50.908;4.204;2023-03-26T13:47:15;3.93;;;3.20;;
15716;SDS011;7960;50.908;4.204;2023-03-26T13:49:45;3.67;;;3.37;;
15716;SDS011;7960;50.908;4.204;2023-03-26T13:52:16;4.23;;;3.27;;
15716;SDS011;7960;50.908;4.204;2023-03-26T13:54:50;4.23;;;3.40;;
15716;SDS011;7960;50.908;4.204;2023-03-26T13:57:24;3.83;;;2.70;;
15716;SDS011;7960;50.908;4.204;2023-03-26T13:59:57;2.60;;;2.30;;
15716;SDS011;7960;50.908;4.204;2023-03-26T14:02:32;2.23;;;2.03;;
15716;SDS011;7960;50.908;4.204;2023-03-26T14:05:04;2.07;;;1.90;;
15716;SDS011;7960;50.908;4.204;2023-03-26T14:07:37;2.10;;;1.90;;
15716;SDS011;7960;50.908;4.204;2023-03-26T14:10:09;1.73;;;1.63;;
15716;SDS011;7960;50.908;4.204;2023-03-26T14:12:43;1.97;;;1.73;;
15716;SDS011;7960;50.908;4.204;2023-03-26T14:15:16;2.60;;;2.30;;
15716;SDS011;7960;50.908;4.204;2023-03-26T14:17:48;2.43;;;2.10;;
15716;SDS011;7960;50.908;4.204;2023-03-26T14:23:27;2.50;;;2.30;;
15716;SDS011;7960;50.908;4.204;2023-03-26T14:26:13;4.60;;;3.30;;
15716;SDS011;7960;50.908;4.204;2023-03-26T14:29:08;3.50;;;3.17;;
15716;SDS011;7960;50.908;4.204;2023-03-26T14:31:49;4.00;;;3.53;;
15716;SDS011;7960;50.908;4.204;2023-03-26T14:34:44;4.47;;;3.40;;
15716;SDS011;7960;50.908;4.204;2023-03-26T14:37:38;3.97;;;3.60;;
15716;SDS011;7960;50.908;4.204;2023-03-26T14:40:22;3.73;;;3.10;;
15716;SDS011;7960;50.908;4.204;2023-03-26T14:42:56;5.60;;;3.53;;
15716;SDS011;7960;50.908;4.204;2023-03-26T14:45:36;7.13;;;3.50;;
15716;SDS011;7960;50.908;4.204;2023-03-26T14:48:31;4.63;;;3.60;;
15716;SDS011;7960;50.908;4.204;2023-03-26T14:51:18;4.20;;;3.80;;
15716;SDS011;7960;50.908;4.204;2023-03-26T14:53:54;6.57;;;4.77;;
15716;SDS011;7960;50.908;4.204;2023-03-26T14:56:37;5.50;;;3.60;;
15716;SDS011;7960;50.908;4.204;2023-03-26T14:59:25;4.83;;;4.10;;
15716;SDS011;7960;50.908;4.204;2023-03-26T15:02:27;4.33;;;3.93;;
15716;SDS011;7960;50.908;4.204;2023-03-26T15:05:36;6.03;;;4.50;;
15716;SDS011;7960;50.908;4.204;2023-03-26T15:08:35;6.17;;;5.00;;
15716;SDS011;7960;50.908;4.204;2023-03-26T15:11:29;8.77;;;5.40;;
15716;SDS011;7960;50.908;4.204;2023-03-26T15:14:09;13.93;;;12.53;;
15716;SDS011;7960;50.908;4.204;2023-03-26T15:17:09;10.53;;;6.93;;
15716;SDS011;7960;50.908;4.204;2023-03-26T15:23:08;8.00;;;5.53;;
15716;SDS011;7960;50.908;4.204;2023-03-26T15:26:12;9.77;;;5.60;;
15716;SDS011;7960;50.908;4.204;2023-03-26T15:29:12;9.67;;;6.30;;
15716;SDS011;7960;50.908;4.204;2023-03-26T15:32:15;10.57;;;6.93;;
15716;SDS011;7960;50.908;4.204;2023-03-26T15:38:14;10.73;;;7.27;;
15716;SDS011;7960;50.908;4.204;2023-03-26T15:41:09;14.40;;;9.07;;
15716;SDS011;7960;50.908;4.204;2023-03-26T15:46:53;14.33;;;7.97;;
15716;SDS011;7960;50.908;4.204;2023-03-26T15:49:42;14.03;;;8.70;;
15716;SDS011;7960;50.908;4.204;2023-03-26T15:52:17;12.50;;;9.00;;
15716;SDS011;7960;50.908;4.204;2023-03-26T15:54:54;13.93;;;8.80;;
15716;SDS011;7960;50.908;4.204;2023-03-26T15:57:26;13.93;;;9.37;;
15716;SDS011;7960;50.908;4.204;2023-03-26T16:00:02;14.50;;;8.00;;
15716;SDS011;7960;50.908;4.204;2023-03-26T16:02:48;12.43;;;7.33;;
15716;SDS011;7960;50.908;4.204;2023-03-26T16:05:35;16.97;;;7.53;;
15716;SDS011;7960;50.908;4.204;2023-03-26T16:08:15;18.77;;;7.93;;
15716;SDS011;7960;50.908;4.204;2023-03-26T16:10:52;12.97;;;6.67;;
15716;SDS011;7960;50.908;4.204;2023-03-26T16:13:32;9.67;;;6.93;;
15716;SDS011;7960;50.908;4.204;2023-03-26T16:18:53;14.80;;;7.77;;
15716;SDS011;7960;50.908;4.204;2023-03-26T16:21:34;15.23;;;6.60;;
15716;SDS011;7960;50.908;4.204;2023-03-26T16:24:19;15.23;;;8.00;;
15716;SDS011;7960;50.908;4.204;2023-03-26T16:26:58;21.13;;;8.30;;
15716;SDS011;7960;50.908;4.204;2023-03-26T16:30:01;14.97;;;7.80;;